Time;durP1;ratioP1;P1;durP2;ratioP2;P2;SDS_P1;SDS_P2;PMS_P1;PMS_P2;Temp;Humidity;BMP_temperature;BMP_pressure;BME280_temperature;BME280_humidity;BME280_pressure;Samples;Min_cycle;Max_cycle;Signal;HPM_P1;HPM_P2
2023/12/31 00:00:34;;;;;;;;;;;;;;;17.31;48.52;101151.13;5076702;28;1044;-49
2023/12/31 00:02:59;;;;;;;;;;;;;;;16.80;48.23;101157.16;5079075;28;1079;-50
2023/12/31 00:05:26;;;;;;;;;;;;;;;16.65;47.67;101157.06;5072814;28;885;-48
2023/12/31 00:07:51;;;;;;;;;;;;;;;17.51;48.19;101152.28;5079111;28;1064;-51
2023/12/31 00:10:17;;;;;;;;;;;;;;;16.80;48.39;101142.59;5079507;28;1043;-49
2023/12/31 00:12:43;;;;;;;;;;;;;;;16.51;47.40;101142.94;5079200;28;1131;-50
2023/12/31 00:15:09;;;;;;;;;;;;;;;17.37;48.21;101147.28;5078294;28;1106;-47
2023/12/31 00:17:34;;;;;;;;;;;;;;;17.23;48.29;101140.63;5078670;28;1914;-51
2023/12/31 00:20:00;;;;;;;;;;;;;;;16.77;48.16;101141.19;5079597;28;1198;-50
2023/12/31 00:22:26;;;;;;;;;;;;;;;16.82;48.09;101149.47;5078494;28;1059;-48
2023/12/31 00:24:54;;;;;;;;;;;;;;;17.48;48.13;101152.81;5078737;28;1087;-51
2023/12/31 00:27:19;;;;;;;;;;;;;;;16.76;48.08;101159.59;5078911;28;1010;-51
2023/12/31 00:29:45;;;;;;;;;;;;;;;16.59;47.34;101154.28;5071108;28;850;-51
2023/12/31 00:32:11;;;;;;;;;;;;;;;16.42;47.02;101153.59;5079280;28;1187;-51
2023/12/31 00:34:36;;;;;;;;;;;;;;;16.24;46.53;101155.69;5078309;28;1101;-51
2023/12/31 00:37:03;;;;;;;;;;;;;;;17.69;47.46;101165.50;5078607;28;1897;-51
2023/12/31 00:39:29;;;;;;;;;;;;;;;16.86;48.33;101167.09;5060841;28;1076;-51
2023/12/31 00:41:54;;;;;;;;;;;;;;;16.64;48.72;101172.72;5077609;28;1402;-47
2023/12/31 00:44:20;;;;;;;;;;;;;;;17.52;48.14;101160.25;5060292;28;1196;-50
2023/12/31 00:46:46;;;;;;;;;;;;;;;16.75;48.60;101168.94;5078349;28;1051;-51
2023/12/31 00:49:11;;;;;;;;;;;;;;;16.46;47.63;101164.91;5079034;28;1046;-50
2023/12/31 00:51:37;;;;;;;;;;;;;;;16.87;47.93;101166.00;5078075;28;1076;-49
2023/12/31 00:54:02;;;;;;;;;;;;;;;17.54;47.99;101168.22;5052074;28;1113;-50
2023/12/31 00:56:28;;;;;;;;;;;;;;;16.80;48.22;101170.06;5077944;28;1894;-50
2023/12/31 00:58:54;;;;;;;;;;;;;;;16.55;47.68;101161.41;5078255;28;1197;-48
2023/12/31 01:01:19;;;;;;;;;;;;;;;16.41;46.75;101165.66;5078650;28;1071;-50
2023/12/31 01:03:45;;;;;;;;;;;;;;;17.50;47.71;101172.59;5078237;28;1199;-49
2023/12/31 01:06:10;;;;;;;;;;;;;;;16.72;48.20;101172.22;5075920;28;989;-48
2023/12/31 01:08:36;;;;;;;;;;;;;;;16.52;47.20;101174.81;5077952;28;1108;-50
2023/12/31 01:11:02;;;;;;;;;;;;;;;16.42;47.37;101170.91;5077842;28;1008;-49
2023/12/31 01:13:27;;;;;;;;;;;;;;;17.83;47.26;101170.50;5077193;28;1124;-50
2023/12/31 01:15:53;;;;;;;;;;;;;;;16.86;48.29;101163.53;5077292;28;1968;-48
2023/12/31 01:18:19;;;;;;;;;;;;;;;16.93;48.51;101170.44;5069570;28;1064;-49
2023/12/31 01:20:44;;;;;;;;;;;;;;;17.43;47.94;101162.69;5077820;28;1205;-50
2023/12/31 01:23:10;;;;;;;;;;;;;;;16.82;48.18;101167.88;5077881;28;1310;-50
2023/12/31 01:25:36;;;;;;;;;;;;;;;16.68;47.82;101165.59;5059833;28;1343;-51
2023/12/31 01:28:02;;;;;;;;;;;;;;;18.15;47.02;101169.47;5076359;28;1059;-51
2023/12/31 01:30:28;;;;;;;;;;;;;;;17.11;47.94;101173.84;5076100;28;1127;-49
2023/12/31 01:32:54;;;;;;;;;;;;;;;16.68;47.91;101170.28;5059843;28;1227;-49
2023/12/31 01:35:20;;;;;;;;;;;;;;;16.70;47.75;101166.16;5050839;28;1218;-48
2023/12/31 01:37:47;;;;;;;;;;;;;;;17.51;48.05;101168.78;5059938;28;1988;-47
2023/12/31 01:40:12;;;;;;;;;;;;;;;16.81;48.03;101174.47;5057778;28;1257;-51
2023/12/31 01:42:38;;;;;;;;;;;;;;;16.56;47.40;101175.94;5057633;28;1067;-49
2023/12/31 01:45:04;;;;;;;;;;;;;;;18.00;47.34;101165.59;5074934;28;1050;-49
2023/12/31 01:47:30;;;;;;;;;;;;;;;17.10;48.20;101164.75;5077224;28;1083;-48
2023/12/31 01:49:56;;;;;;;;;;;;;;;16.80;47.67;101165.38;5077400;28;968;-49
2023/12/31 01:52:24;;;;;;;;;;;;;;;17.10;48.48;101164.75;5056801;28;1380;-51
2023/12/31 01:54:54;;;;;;;;;;;;;;;17.84;47.59;101166.63;5057557;28;1159;-50
2023/12/31 01:57:23;;;;;;;;;;;;;;;17.03;48.22;101161.44;5059109;28;1906;-49
2023/12/31 01:59:49;;;;;;;;;;;;;;;16.73;47.38;101162.91;5077024;28;1083;-50
2023/12/31 02:02:15;;;;;;;;;;;;;;;18.12;47.26;101160.66;5059187;28;2066;-50
2023/12/31 02:04:41;;;;;;;;;;;;;;;17.23;48.15;101157.13;5054652;28;1122;-50
2023/12/31 02:07:06;;;;;;;;;;;;;;;16.85;48.00;101159.13;5069059;28;1560;-45
2023/12/31 02:09:32;;;;;;;;;;;;;;;16.95;48.29;101159.19;5077259;28;1024;-50
2023/12/31 02:11:58;;;;;;;;;;;;;;;17.69;47.67;101153.69;5077030;28;1053;-49
2023/12/31 02:14:23;;;;;;;;;;;;;;;16.98;48.24;101155.91;5076771;28;1059;-48
2023/12/31 02:16:49;;;;;;;;;;;;;;;16.67;47.49;101152.94;5072038;28;1991;-47
2023/12/31 02:19:14;;;;;;;;;;;;;;;17.06;47.90;101149.91;5075776;28;1108;-47
2023/12/31 02:21:40;;;;;;;;;;;;;;;17.15;48.29;101152.13;5058817;28;1533;-49
2023/12/31 02:24:06;;;;;;;;;;;;;;;16.69;47.76;101156.28;5076183;28;1112;-50
2023/12/31 02:26:31;;;;;;;;;;;;;;;17.79;47.66;101150.94;5058703;28;1106;-51
2023/12/31 02:28:57;;;;;;;;;;;;;;;17.04;48.07;101149.34;5075802;28;1142;-50
2023/12/31 02:31:23;;;;;;;;;;;;;;;16.66;47.68;101144.97;5076470;28;1063;-51
2023/12/31 02:33:48;;;;;;;;;;;;;;;16.57;46.80;101152.91;5076089;28;1103;-51
2023/12/31 02:36:14;;;;;;;;;;;;;;;17.33;47.91;101154.41;5076404;28;1976;-49
2023/12/31 02:38:39;;;;;;;;;;;;;;;17.06;48.09;101162.81;5076585;28;1175;-45
2023/12/31 02:41:05;;;;;;;;;;;;;;;16.66;47.89;101169.69;5071351;28;1118;-48
2023/12/31 02:43:30;;;;;;;;;;;;;;;16.42;47.01;101162.69;5056553;28;1135;-48
2023/12/31 02:45:56;;;;;;;;;;;;;;;17.45;47.62;101165.19;5076492;28;1128;-50
2023/12/31 02:48:23;;;;;;;;;;;;;;;16.96;48.43;101162.75;5076696;28;1155;-50
2023/12/31 02:50:49;;;;;;;;;;;;;;;16.57;47.89;101167.44;5058346;28;1222;-50
2023/12/31 02:53:14;;;;;;;;;;;;;;;16.87;48.01;101165.16;5074802;28;1052;-48
2023/12/31 02:55:40;;;;;;;;;;;;;;;17.23;48.12;101168.13;5058370;28;1192;-47
2023/12/31 02:58:06;;;;;;;;;;;;;;;16.73;47.53;101182.13;5076238;28;1918;-46
2023/12/31 03:00:31;;;;;;;;;;;;;;;17.23;48.22;101173.63;5058504;28;1586;-47
2023/12/31 03:02:57;;;;;;;;;;;;;;;17.23;48.10;101184.59;5076319;28;1015;-49
2023/12/31 03:05:22;;;;;;;;;;;;;;;16.69;47.82;101181.00;5070142;28;1110;-49
2023/12/31 03:07:48;;;;;;;;;;;;;;;16.57;47.08;101185.84;5055776;28;1226;-50
2023/12/31 03:10:14;;;;;;;;;;;;;;;16.38;46.29;101182.66;5057985;28;1059;-46
2023/12/31 03:12:39;;;;;;;;;;;;;;;17.65;47.49;101185.59;5076012;28;1171;-49
2023/12/31 03:15:05;;;;;;;;;;;;;;;16.82;48.27;101185.19;5076099;28;1146;-50
2023/12/31 03:17:31;;;;;;;;;;;;;;;18.03;47.24;101192.56;5073991;28;1914;-46
2023/12/31 03:19:57;;;;;;;;;;;;;;;17.90;47.46;101182.88;5076093;28;1118;-49
2023/12/31 03:22:23;;;;;;;;;;;;;;;17.10;47.86;101184.00;5076315;28;1055;-48
2023/12/31 03:24:48;;;;;;;;;;;;;;;16.74;47.34;101186.50;5076045;28;1199;-49
2023/12/31 03:27:14;;;;;;;;;;;;;;;16.62;46.61;101185.03;5075851;28;1059;-49
2023/12/31 03:29:39;;;;;;;;;;;;;;;16.55;46.28;101190.75;5069429;28;1163;-51
2023/12/31 03:32:05;;;;;;;;;;;;;;;17.74;47.42;101198.53;5074270;28;1139;-47
2023/12/31 03:34:31;;;;;;;;;;;;;;;17.01;48.02;101206.75;5075746;28;1043;-48
2023/12/31 03:36:57;;;;;;;;;;;;;;;17.05;48.36;101205.94;5060997;28;2019;-50
2023/12/31 03:39:22;;;;;;;;;;;;;;;17.26;48.16;101211.53;5079964;28;1094;-51
2023/12/31 03:41:48;;;;;;;;;;;;;;;16.79;47.58;101223.31;5058341;28;1159;-49
2023/12/31 03:44:13;;;;;;;;;;;;;;;16.61;47.04;101211.69;5068806;28;1011;-46
2023/12/31 03:46:39;;;;;;;;;;;;;;;18.01;47.04;101211.28;5077490;28;1142;-50
2023/12/31 03:49:05;;;;;;;;;;;;;;;17.03;48.18;101216.38;5079565;28;1039;-50
2023/12/31 03:51:31;;;;;;;;;;;;;;;16.94;47.77;101220.72;5079403;28;1176;-48
2023/12/31 03:53:56;;;;;;;;;;;;;;;17.42;48.08;101213.28;5071753;28;1047;-51
2023/12/31 03:56:22;;;;;;;;;;;;;;;16.92;47.89;101225.66;5077040;28;1984;-51
2023/12/31 03:58:47;;;;;;;;;;;;;;;17.21;47.99;101230.78;5079166;28;1094;-48
2023/12/31 04:01:13;;;;;;;;;;;;;;;17.67;47.52;101230.97;5079572;28;1032;-47
2023/12/31 04:03:39;;;;;;;;;;;;;;;16.99;47.91;101223.50;5061421;28;1138;-50
2023/12/31 04:06:06;;;;;;;;;;;;;;;16.70;47.44;101225.75;5057683;28;1217;-50
2023/12/31 04:08:32;;;;;;;;;;;;;;;16.53;46.64;101232.19;5061011;28;1024;-47
2023/12/31 04:10:58;;;;;;;;;;;;;;;16.42;46.19;101236.78;5061306;28;1477;-49
2023/12/31 04:13:24;;;;;;;;;;;;;;;17.60;47.53;101244.16;5079172;28;1120;-49
2023/12/31 04:15:49;;;;;;;;;;;;;;;17.00;48.23;101246.28;5061442;28;1528;-51
2023/12/31 04:18:15;;;;;;;;;;;;;;;16.65;47.85;101240.28;5070469;28;1910;-49
2023/12/31 04:20:40;;;;;;;;;;;;;;;17.86;47.41;101238.72;5058815;28;1099;-46
2023/12/31 04:23:07;;;;;;;;;;;;;;;16.93;48.06;101244.63;5060955;28;1102;-50
2023/12/31 04:25:32;;;;;;;;;;;;;;;16.70;47.25;101242.22;5061045;28;1921;-50
2023/12/31 04:27:59;;;;;;;;;;;;;;;17.18;48.04;101251.38;5060507;28;1537;-48
2023/12/31 04:30:25;;;;;;;;;;;;;;;17.31;47.83;101244.56;5073970;28;1162;-49
2023/12/31 04:32:51;;;;;;;;;;;;;;;16.72;48.08;101246.34;5079090;28;1095;-52
2023/12/31 04:35:17;;;;;;;;;;;;;;;16.55;47.08;101257.50;5078730;28;1134;-51
2023/12/31 04:37:42;;;;;;;;;;;;;;;18.05;47.13;101258.34;5060472;28;1930;-50
2023/12/31 04:40:08;;;;;;;;;;;;;;;17.10;48.10;101260.94;5078512;28;1129;-55
2023/12/31 04:42:34;;;;;;;;;;;;;;;16.79;47.36;101256.28;5044264;28;2175;-53
2023/12/31 04:45:04;;;;;;;;;;;;;;;16.51;47.01;101261.00;5075155;28;1907;-53
2023/12/31 04:47:29;;;;;;;;;;;;;;;17.13;47.89;101256.00;5068624;28;1966;-53
2023/12/31 04:49:55;;;;;;;;;;;;;;;16.98;48.28;101265.78;5077822;28;1842;-53
2023/12/31 04:52:20;;;;;;;;;;;;;;;16.64;47.51;101271.56;5078268;28;2233;-49
2023/12/31 04:54:46;;;;;;;;;;;;;;;17.23;47.89;101267.88;5070615;28;2238;-53
2023/12/31 04:57:12;;;;;;;;;;;;;;;16.87;48.38;101258.53;5078079;28;1979;-55
2023/12/31 04:59:38;;;;;;;;;;;;;;;16.51;47.80;101269.22;5078274;28;973;-53
2023/12/31 05:02:04;;;;;;;;;;;;;;;16.31;46.93;101267.13;5077852;28;1011;-54
2023/12/31 05:04:29;;;;;;;;;;;;;;;17.58;47.52;101262.81;5063897;28;1103;-55
2023/12/31 05:06:55;;;;;;;;;;;;;;;16.69;48.08;101263.38;5066461;28;1170;-54
2023/12/31 05:09:21;;;;;;;;;;;;;;;16.51;47.61;101261.00;5075076;28;1056;-53
2023/12/31 05:11:46;;;;;;;;;;;;;;;17.84;47.20;101260.16;5077413;28;1008;-54
2023/12/31 05:14:12;;;;;;;;;;;;;;;17.19;48.35;101261.25;5077505;28;1055;-55
2023/12/31 05:16:37;;;;;;;;;;;;;;;16.73;47.84;101253.50;5077815;28;1959;-54
2023/12/31 05:19:03;;;;;;;;;;;;;;;16.52;47.02;101257.16;5076749;28;1176;-53
2023/12/31 05:21:28;;;;;;;;;;;;;;;17.34;48.10;101266.00;5077664;28;1253;-53
2023/12/31 05:23:54;;;;;;;;;;;;;;;17.28;48.21;101275.34;5073921;28;1054;-53
2023/12/31 05:26:20;;;;;;;;;;;;;;;16.75;49.96;101275.22;5075544;28;2693;-54
2023/12/31 05:28:45;;;;;;;;;;;;;;;16.55;49.86;101264.88;5073580;28;1099;-53
2023/12/31 05:31:11;;;;;;;;;;;;;;;16.34;50.51;101261.13;5068721;28;874;-52
2023/12/31 05:33:36;;;;;;;;;;;;;;;16.16;50.58;101265.06;5063734;28;987;-51
2023/12/31 05:36:02;;;;;;;;;;;;;;;15.99;50.78;101266.00;5076900;28;1101;-52
2023/12/31 05:38:28;;;;;;;;;;;;;;;15.90;51.20;101273.84;5076897;28;1099;-51
2023/12/31 05:40:53;;;;;;;;;;;;;;;15.66;51.58;101267.78;5067359;28;991;-51
2023/12/31 05:43:19;;;;;;;;;;;;;;;15.60;51.53;101266.06;5070205;28;1103;-51
2023/12/31 05:45:44;;;;;;;;;;;;;;;15.50;51.72;101279.63;5066632;28;1067;-47
2023/12/31 05:48:10;;;;;;;;;;;;;;;17.03;48.48;101270.50;5063359;28;1201;-50
2023/12/31 05:50:36;;;;;;;;;;;;;;;16.92;48.52;101269.59;5076931;28;1044;-49
2023/12/31 05:53:01;;;;;;;;;;;;;;;16.29;49.92;101275.63;5076721;28;1054;-51
2023/12/31 05:55:27;;;;;;;;;;;;;;;15.90;50.71;101284.00;5067045;28;1792;-51
2023/12/31 05:57:52;;;;;;;;;;;;;;;15.69;51.42;101280.97;5056291;28;1982;-48
2023/12/31 06:00:18;;;;;;;;;;;;;;;15.54;51.75;101283.50;5056895;28;1079;-47
2023/12/31 06:02:43;;;;;;;;;;;;;;;17.06;47.98;101286.47;5059379;28;1118;-52
2023/12/31 06:05:09;;;;;;;;;;;;;;;17.17;47.39;101284.63;5076913;28;997;-52
2023/12/31 06:07:35;;;;;;;;;;;;;;;16.29;49.76;101289.34;5066592;28;1206;-48
2023/12/31 06:10:00;;;;;;;;;;;;;;;16.00;50.49;101289.59;5076575;28;1000;-49
2023/12/31 06:12:26;;;;;;;;;;;;;;;15.70;51.20;101288.13;5073370;28;1106;-48
2023/12/31 06:14:52;;;;;;;;;;;;;;;16.81;48.66;101289.81;5066051;28;1091;-49
2023/12/31 06:17:18;;;;;;;;;;;;;;;17.44;46.85;101284.47;5060164;28;1985;-52
2023/12/31 06:19:43;;;;;;;;;;;;;;;16.49;49.16;101285.16;5065491;28;917;-50
2023/12/31 06:22:10;;;;;;;;;;;;;;;16.05;50.17;101284.16;5072987;28;1094;-50
2023/12/31 06:24:36;;;;;;;;;;;;;;;15.83;50.61;101289.66;5066702;28;2435;-51
2023/12/31 06:27:01;;;;;;;;;;;;;;;16.79;48.68;101290.09;5075574;28;1059;-51
2023/12/31 06:29:27;;;;;;;;;;;;;;;17.21;47.19;101296.75;5076209;28;1066;-51
2023/12/31 06:31:52;;;;;;;;;;;;;;;16.36;49.08;101303.69;5062139;28;1070;-50
2023/12/31 06:34:18;;;;;;;;;;;;;;;16.02;50.05;101303.03;5076058;28;1141;-48
2023/12/31 06:36:43;;;;;;;;;;;;;;;16.75;48.43;101295.25;5075340;28;1925;-51
2023/12/31 06:39:12;;;;;;;;;;;;;;;17.37;46.74;101301.22;5064933;28;1218;-47
2023/12/31 06:41:37;;;;;;;;;;;;;;;16.46;49.03;101305.72;5066514;28;1250;-49
2023/12/31 06:44:03;;;;;;;;;;;;;;;16.03;50.19;101316.53;5075507;28;1304;-49
2023/12/31 06:46:29;;;;;;;;;;;;;;;15.85;50.63;101319.56;5076213;28;1304;-49
2023/12/31 06:48:55;;;;;;;;;;;;;;;16.03;50.13;101316.53;5075518;28;1340;-49
2023/12/31 06:51:21;;;;;;;;;;;;;;;17.54;46.25;101306.53;5076769;28;1077;-49
2023/12/31 06:53:46;;;;;;;;;;;;;;;16.69;48.50;101317.44;5075365;28;1103;-50
2023/12/31 06:56:12;;;;;;;;;;;;;;;16.24;49.61;101325.81;5072611;28;2462;-50
2023/12/31 06:58:38;;;;;;;;;;;;;;;15.87;50.26;101328.41;5076003;28;1023;-51
2023/12/31 07:01:03;;;;;;;;;;;;;;;16.87;48.07;101325.31;5075589;28;1078;-53
2023/12/31 07:03:29;;;;;;;;;;;;;;;17.40;46.62;101327.34;5075861;28;1007;-53
2023/12/31 07:05:55;;;;;;;;;;;;;;;16.50;48.92;101336.22;5075577;28;1437;-49
2023/12/31 07:08:20;;;;;;;;;;;;;;;16.13;49.82;101334.16;5046140;28;1036;-51
2023/12/31 07:10:46;;;;;;;;;;;;;;;15.94;50.28;101331.78;5072614;28;1127;-51
2023/12/31 07:13:12;;;;;;;;;;;;;;;17.07;47.76;101335.66;5080075;28;1126;-52
2023/12/31 07:15:37;;;;;;;;;;;;;;;17.01;47.52;101336.72;5079893;28;1066;-52
2023/12/31 07:18:03;;;;;;;;;;;;;;;16.35;49.12;101340.44;5078983;28;1976;-51
2023/12/31 07:20:29;;;;;;;;;;;;;;;15.96;49.94;101337.81;5077513;28;907;-52
2023/12/31 07:22:54;;;;;;;;;;;;;;;16.23;49.80;101342.53;5066310;28;1530;-51
2023/12/31 07:25:20;;;;;;;;;;;;;;;17.70;45.81;101343.19;5068831;28;1828;-52
2023/12/31 07:27:46;;;;;;;;;;;;;;;16.86;47.79;101342.06;5059736;28;1107;-53
2023/12/31 07:30:11;;;;;;;;;;;;;;;16.41;49.06;101349.56;5072874;28;1008;-52
2023/12/31 07:32:38;;;;;;;;;;;;;;;16.10;49.79;101349.22;5059748;28;988;-49
2023/12/31 07:35:04;;;;;;;;;;;;;;;16.02;50.16;101352.41;5059468;28;1004;-50
2023/12/31 07:37:30;;;;;;;;;;;;;;;17.49;46.48;101347.75;5072276;28;1902;-52
2023/12/31 07:39:56;;;;;;;;;;;;;;;16.82;47.72;101360.16;5060730;28;1107;-50
2023/12/31 07:42:21;;;;;;;;;;;;;;;16.31;49.35;101365.94;5079153;28;1101;-48
2023/12/31 07:44:47;;;;;;;;;;;;;;;15.98;50.21;101365.81;5058094;28;1353;-47
2023/12/31 07:47:12;;;;;;;;;;;;;;;15.93;50.43;101371.25;5067934;28;1143;-49
2023/12/31 07:49:38;;;;;;;;;;;;;;;17.50;46.48;101370.56;5064164;28;1166;-51
2023/12/31 07:52:04;;;;;;;;;;;;;;;17.06;47.33;101379.88;5058943;28;1043;-49
2023/12/31 07:54:29;;;;;;;;;;;;;;;16.46;48.79;101379.00;5074191;28;1903;-47
2023/12/31 07:56:55;;;;;;;;;;;;;;;16.11;49.85;101383.00;5070979;28;1910;-49
2023/12/31 07:59:21;;;;;;;;;;;;;;;15.93;50.42;101390.44;5079055;28;1079;-49
2023/12/31 08:01:46;;;;;;;;;;;;;;;17.51;46.66;101377.72;5078990;28;1117;-51
2023/12/31 08:04:12;;;;;;;;;;;;;;;17.15;47.04;101382.97;5064039;28;1170;-51
2023/12/31 08:06:37;;;;;;;;;;;;;;;16.40;49.11;101400.91;5067202;28;1438;-47
2023/12/31 08:09:03;;;;;;;;;;;;;;;16.11;49.84;101391.22;5062003;28;1019;-49
2023/12/31 08:11:28;;;;;;;;;;;;;;;16.02;49.91;101402.63;5072384;28;1348;-52
2023/12/31 08:13:54;;;;;;;;;;;;;;;16.24;49.67;101388.94;5066606;28;1055;-49
2023/12/31 08:16:20;;;;;;;;;;;;;;;17.65;46.08;101392.66;5078353;28;1918;-52
2023/12/31 08:18:46;;;;;;;;;;;;;;;16.77;47.92;101397.47;5078260;28;1359;-50
2023/12/31 08:21:11;;;;;;;;;;;;;;;16.22;49.45;101402.06;5063445;28;991;-51
2023/12/31 08:23:37;;;;;;;;;;;;;;;15.97;50.09;101405.31;5065999;28;1336;-51
2023/12/31 08:26:03;;;;;;;;;;;;;;;15.87;50.50;101399.69;5077667;28;2651;-51
2023/12/31 08:28:29;;;;;;;;;;;;;;;17.41;46.70;101398.56;5078052;28;1288;-50
2023/12/31 08:30:55;;;;;;;;;;;;;;;16.76;47.92;101398.53;5077194;28;1382;-50
2023/12/31 08:33:20;;;;;;;;;;;;;;;16.30;49.33;101398.03;5077707;28;1166;-51
2023/12/31 08:35:46;;;;;;;;;;;;;;;16.02;50.02;101405.38;5077218;28;1276;-51
2023/12/31 08:38:12;;;;;;;;;;;;;;;16.99;47.78;101387.53;5071051;28;1902;-48
2023/12/31 08:40:37;;;;;;;;;;;;;;;17.30;46.86;101396.00;5077761;28;1241;-51
2023/12/31 08:43:03;;;;;;;;;;;;;;;16.52;48.94;101400.78;5064291;28;1151;-51
2023/12/31 08:45:29;;;;;;;;;;;;;;;16.21;49.69;101391.34;5073627;28;1016;-48
2023/12/31 08:47:54;;;;;;;;;;;;;;;15.95;50.20;101385.53;5076910;28;1162;-49
2023/12/31 08:50:20;;;;;;;;;;;;;;;16.37;49.65;101392.38;5078049;28;1332;-52
2023/12/31 08:52:46;;;;;;;;;;;;;;;17.55;46.37;101379.69;5076451;28;1276;-47
2023/12/31 08:55:12;;;;;;;;;;;;;;;16.68;48.34;101379.78;5077889;28;1810;-49
2023/12/31 08:57:39;;;;;;;;;;;;;;;16.17;49.66;101384.72;5074749;28;1967;-47
2023/12/31 09:00:06;;;;;;;;;;;;;;;16.06;49.95;101372.78;5076179;28;1181;-51
2023/12/31 09:02:32;;;;;;;;;;;;;;;16.49;49.38;101383.97;5059985;28;1048;-51
2023/12/31 09:04:57;;;;;;;;;;;;;;;17.78;45.93;101374.84;5060712;28;1333;-48
2023/12/31 09:07:23;;;;;;;;;;;;;;;16.79;48.34;101371.63;5061587;28;1127;-50
2023/12/31 09:09:48;;;;;;;;;;;;;;;16.35;49.27;101375.31;5058315;28;876;-47
2023/12/31 09:12:14;;;;;;;;;;;;;;;16.06;50.14;101373.63;5071584;28;975;-50
2023/12/31 09:14:40;;;;;;;;;;;;;;;15.94;50.43;101372.91;5070456;28;1035;-47
2023/12/31 09:17:05;;;;;;;;;;;;;;;17.26;47.31;101368.22;5065968;28;1901;-51
2023/12/31 09:19:31;;;;;;;;;;;;;;;17.47;46.59;101360.09;5071289;28;1277;-49
2023/12/31 09:21:56;;;;;;;;;;;;;;;16.56;48.70;101363.47;5063499;28;1171;-49
2023/12/31 09:24:22;;;;;;;;;;;;;;;16.25;49.49;101356.81;5068257;28;2509;-47
2023/12/31 09:26:47;;;;;;;;;;;;;;;16.02;50.13;101357.91;5063723;28;1119;-50
2023/12/31 09:29:14;;;;;;;;;;;;;;;15.88;50.56;101352.00;5068865;28;1241;-49
2023/12/31 09:31:39;;;;;;;;;;;;;;;16.51;49.14;101351.59;5056795;28;1115;-50
2023/12/31 09:34:05;;;;;;;;;;;;;;;17.53;46.72;101342.53;5062372;28;1147;-49
2023/12/31 09:36:31;;;;;;;;;;;;;;;16.58;48.62;101344.00;5076295;28;1898;-47
2023/12/31 09:38:56;;;;;;;;;;;;;;;16.13;49.82;101348.72;5057448;28;1139;-47
2023/12/31 09:41:25;;;;;;;;;;;;;;;15.94;50.43;101342.75;5070595;28;1254;-49
2023/12/31 09:43:52;;;;;;;;;;;;;;;16.37;49.65;101343.78;5076409;28;1367;-50
2023/12/31 09:46:21;;;;;;;;;;;;;;;17.60;46.25;101340.41;5075775;28;1289;-50
2023/12/31 09:48:50;;;;;;;;;;;;;;;16.66;48.75;101339.94;5076436;28;1268;-50
2023/12/31 09:51:16;;;;;;;;;;;;;;;16.15;50.18;101341.06;5076051;28;1332;-49
2023/12/31 09:53:42;;;;;;;;;;;;;;;15.94;50.45;101334.50;5076228;28;1553;-50
2023/12/31 09:56:08;;;;;;;;;;;;;;;16.03;50.54;101338.47;5070463;28;2623;-49
2023/12/31 09:58:33;;;;;;;;;;;;;;;17.50;46.83;101334.81;5065000;28;1970;-49
2023/12/31 10:00:59;;;;;;;;;;;;;;;17.03;47.88;101337.28;5054743;28;1312;-48
2023/12/31 10:03:25;;;;;;;;;;;;;;;16.39;49.33;101338.84;5067007;28;1055;-48
2023/12/31 10:05:50;;;;;;;;;;;;;;;16.14;50.24;101327.59;5045594;28;1019;-51
2023/12/31 10:08:16;;;;;;;;;;;;;;;15.92;50.52;101331.19;5055504;28;1115;-50
2023/12/31 10:10:42;;;;;;;;;;;;;;;16.50;49.36;101325.25;5055748;28;1226;-51
2023/12/31 10:13:10;;;;;;;;;;;;;;;17.58;46.51;101318.66;5076225;28;1201;-48
2023/12/31 10:15:36;;;;;;;;;;;;;;;16.53;48.95;101324.72;5049372;28;1436;-43
2023/12/31 10:18:03;;;;;;;;;;;;;;;16.17;49.83;101319.69;5069743;28;1909;-51
2023/12/31 10:20:29;;;;;;;;;;;;;;;15.97;50.67;101317.53;5061950;28;1024;-55
2023/12/31 10:22:55;;;;;;;;;;;;;;;16.00;50.64;101311.53;5058771;28;1033;-53
2023/12/31 10:25:22;;;;;;;;;;;;;;;17.50;46.96;101310.94;5076055;28;2444;-55
2023/12/31 10:27:47;;;;;;;;;;;;;;;17.07;47.69;101302.69;5055898;28;1024;-55
2023/12/31 10:30:13;;;;;;;;;;;;;;;16.47;49.10;101314.78;5065520;28;1143;-54
2023/12/31 10:32:39;;;;;;;;;;;;;;;16.10;50.17;101308.06;5076012;28;988;-55
2023/12/31 10:35:05;;;;;;;;;;;;;;;15.95;50.50;101305.16;5049267;28;1076;-54
2023/12/31 10:37:30;;;;;;;;;;;;;;;15.73;50.90;101304.06;5072231;28;1917;-55
2023/12/31 10:39:56;;;;;;;;;;;;;;;17.14;47.76;101301.63;5075933;28;1173;-54
2023/12/31 10:42:22;;;;;;;;;;;;;;;17.20;47.59;101306.06;5067638;28;1106;-54
2023/12/31 10:44:49;;;;;;;;;;;;;;;16.44;49.31;101305.16;5060322;28;1044;-55
2023/12/31 10:47:16;;;;;;;;;;;;;;;16.10;50.32;101297.09;5076002;28;1568;-54
2023/12/31 10:49:46;;;;;;;;;;;;;;;16.02;50.54;101303.88;5055898;28;1024;-55
2023/12/31 10:52:15;;;;;;;;;;;;;;;16.80;48.70;101288.16;5065125;28;1234;-54
2023/12/31 10:54:51;;;;;;;;;;;;;;;17.49;46.56;101287.28;5075318;28;1849;-51
2023/12/31 10:57:16;;;;;;;;;;;;;;;16.58;48.85;101283.59;5076214;28;1984;-54
2023/12/31 10:59:42;;;;;;;;;;;;;;;16.18;50.13;101282.91;5075995;28;972;-53
2023/12/31 11:02:15;;;;;;;;;;;;;;;16.00;50.42;101281.34;5075814;28;1004;-54
2023/12/31 11:04:40;;;;;;;;;;;;;;;15.80;51.05;101278.41;5070636;28;1155;-52
2023/12/31 11:07:06;;;;;;;;;;;;;;;16.80;48.83;101274.41;5049720;28;1164;-53
2023/12/31 11:09:33;;;;;;;;;;;;;;;17.28;47.33;101275.34;5070849;28;1110;-53
2023/12/31 11:11:58;;;;;;;;;;;;;;;16.45;49.36;101267.53;5057586;28;1035;-53
2023/12/31 11:14:29;;;;;;;;;;;;;;;16.05;50.42;101267.72;5044344;28;1134;-53
2023/12/31 11:16:54;;;;;;;;;;;;;;;15.89;50.62;101274.94;5051567;28;2223;-53
2023/12/31 11:19:22;;;;;;;;;;;;;;;15.80;51.03;101265.50;5070612;28;1154;-51
2023/12/31 11:22:03;;;;;;;;;;;;;;;17.33;47.35;101267.09;5055440;28;1106;-53
2023/12/31 11:24:29;;;;;;;;;;;;;;;16.67;48.83;101264.72;5063174;28;2435;-51
2023/12/31 11:27:03;;;;;;;;;;;;;;;16.17;49.88;101261.22;5061912;28;1086;-53
2023/12/31 11:29:29;;;;;;;;;;;;;;;15.98;50.56;101264.34;5063620;28;1000;-53
2023/12/31 11:31:55;;;;;;;;;;;;;;;15.80;50.95;101257.28;5062780;28;1110;-51
2023/12/31 11:34:20;;;;;;;;;;;;;;;17.30;47.19;101256.66;5075101;28;1111;-53
2023/12/31 11:36:46;;;;;;;;;;;;;;;17.08;47.63;101259.53;5072824;28;1988;-53
2023/12/31 11:39:17;;;;;;;;;;;;;;;16.40;49.30;101258.16;5064784;28;1316;-53
2023/12/31 11:42:06;;;;;;;;;;;;;;;16.05;50.21;101251.25;5057261;28;1272;-52
2023/12/31 11:44:41;;;;;;;;;;;;;;;15.84;50.95;101247.47;5061018;28;1400;-53
2023/12/31 11:47:23;;;;;;;;;;;;;;;16.92;48.30;101256.69;5063500;28;1360;-52
2023/12/31 11:49:52;;;;;;;;;;;;;;;17.28;47.10;101250.59;5074111;28;1459;-53
2023/12/31 11:52:21;;;;;;;;;;;;;;;16.45;49.10;101253.81;5074207;28;1359;-53
2023/12/31 11:54:46;;;;;;;;;;;;;;;16.18;49.78;101249.19;5071871;28;1824;-54
2023/12/31 11:57:16;;;;;;;;;;;;;;;15.94;50.45;101252.22;5075802;28;1976;-53
2023/12/31 11:59:43;;;;;;;;;;;;;;;16.55;49.36;101251.16;5077752;28;1367;-51
2023/12/31 12:02:09;;;;;;;;;;;;;;;17.55;46.75;101252.38;5065902;28;983;-53
2023/12/31 12:04:35;;;;;;;;;;;;;;;16.64;48.95;101249.59;5065523;28;1008;-54
2023/12/31 12:07:01;;;;;;;;;;;;;;;16.15;49.90;101241.47;5065575;28;1079;-54
2023/12/31 12:09:27;;;;;;;;;;;;;;;15.88;50.86;101240.38;5056245;28;1114;-55
2023/12/31 12:12:00;;;;;;;;;;;;;;;15.82;50.94;101240.56;5072306;28;1043;-54
2023/12/31 12:14:26;;;;;;;;;;;;;;;15.59;51.51;101237.00;5078629;28;1035;-55
2023/12/31 12:16:53;;;;;;;;;;;;;;;16.92;48.45;101233.91;5078216;28;1901;-54
2023/12/31 12:19:22;;;;;;;;;;;;;;;17.43;46.85;101233.34;5078479;28;1126;-55
2023/12/31 12:21:48;;;;;;;;;;;;;;;16.47;49.37;101235.19;5076961;28;1015;-55
2023/12/31 12:24:14;;;;;;;;;;;;;;;16.07;50.20;101234.53;5067131;28;1859;-55
2023/12/31 12:26:39;;;;;;;;;;;;;;;15.84;50.86;101239.22;5078298;28;1050;-55
2023/12/31 12:29:05;;;;;;;;;;;;;;;15.71;51.02;101232.22;5074436;28;1181;-55
2023/12/31 12:31:35;;;;;;;;;;;;;;;16.50;49.38;101234.66;5079010;28;1151;-55
2023/12/31 12:34:02;;;;;;;;;;;;;;;17.75;46.40;101235.13;5077918;28;996;-56
2023/12/31 12:36:27;;;;;;;;;;;;;;;16.66;48.68;101224.59;5064850;28;1906;-57
2023/12/31 12:38:53;;;;;;;;;;;;;;;16.26;49.77;101226.75;5058277;28;1083;-57
2023/12/31 12:41:22;;;;;;;;;;;;;;;15.98;50.40;101234.16;5071792;28;1253;-57